createdAt,value
2022-12-29T00:01:23.790Z,99969.31
2022-12-29T00:06:26.860Z,99958.72
2022-12-29T00:11:29.653Z,99954.91
2022-12-29T00:16:34.961Z,99949.28
2022-12-29T00:21:55.170Z,99948.63
2022-12-29T00:27:23.431Z,99942.53
2022-12-29T00:32:45.156Z,99930.41
2022-12-29T00:38:07.904Z,99928.13
2022-12-29T00:43:28.318Z,99908.88
2022-12-29T00:48:49.975Z,99922.31
2022-12-29T00:53:52.893Z,99917.41
2022-12-29T00:58:55.558Z,99907.06
2022-12-29T01:04:03.661Z,99901.84
2022-12-29T01:09:24.959Z,99888.44
2022-12-29T01:14:27.961Z,99876.63
2022-12-29T01:19:32.029Z,99888.31
2022-12-29T01:24:34.637Z,99874.53
2022-12-29T01:29:37.195Z,99873.34
2022-12-29T01:34:42.709Z,99867.97
2022-12-29T01:39:45.558Z,99871.59
2022-12-29T01:44:54.772Z,99868.75
2022-12-29T01:50:04.290Z,99851.72
2022-12-29T01:55:08.502Z,99859.44
2022-12-29T02:05:54.532Z,99860.13
2022-12-29T02:10:58.531Z,99861.41
2022-12-29T02:16:15.647Z,99877.75
2022-12-29T02:21:54.168Z,99848.19
2022-12-29T02:27:24.018Z,99841.13
2022-12-29T02:32:37.994Z,99835.91
2022-12-29T02:37:46.450Z,99824.44
2022-12-29T02:42:53.553Z,99835.88
2022-12-29T02:54:44.755Z,99825.53
2022-12-29T02:59:53.106Z,99840.59
2022-12-29T03:05:13.490Z,99824.50
2022-12-29T03:10:27.583Z,99832.50
2022-12-29T03:15:53.928Z,99826.34
2022-12-29T03:21:00.627Z,99821.84
2022-12-29T03:26:24.791Z,99823.00
2022-12-29T03:31:27.975Z,99810.38
2022-12-29T03:36:39.505Z,99814.56
2022-12-29T03:41:47.481Z,99794.44
2022-12-29T03:46:50.168Z,99799.22
2022-12-29T03:51:53.408Z,99772.28
2022-12-29T03:57:00.345Z,99780.50
2022-12-29T04:02:18.275Z,99773.09
2022-12-29T04:07:21.255Z,99767.06
2022-12-29T04:12:26.121Z,99756.63
2022-12-29T04:17:28.887Z,99750.13
2022-12-29T04:22:31.673Z,99759.16
2022-12-29T04:27:35.764Z,99758.06
2022-12-29T04:32:58.966Z,99756.00
2022-12-29T04:38:01.623Z,99774.03
2022-12-29T04:43:06.055Z,99803.13
2022-12-29T04:48:16.207Z,99794.06
2022-12-29T04:53:25.789Z,99808.28
2022-12-29T04:58:31.603Z,99817.44
2022-12-29T05:03:35.663Z,99805.09
2022-12-29T05:08:38.378Z,99821.22
2022-12-29T05:13:42.802Z,99824.47
2022-12-29T05:18:45.405Z,99802.63
2022-12-29T05:23:48.217Z,99802.91
2022-12-29T05:28:52.682Z,99794.75
2022-12-29T05:33:55.900Z,99759.22
2022-12-29T05:38:59.145Z,99812.78
2022-12-29T05:44:03.505Z,99832.28
2022-12-29T05:49:10.386Z,99842.47
2022-12-29T05:54:34.602Z,99849.44
2022-12-29T05:59:40.219Z,99827.75
2022-12-29T06:04:42.954Z,99863.28
2022-12-29T06:09:46.180Z,99880.88
2022-12-29T06:14:51.238Z,99881.47
2022-12-29T06:19:54.260Z,99892.31
2022-12-29T06:25:03.012Z,99913.53
2022-12-29T06:30:11.918Z,99907.97
2022-12-29T06:35:16.270Z,99897.63
2022-12-29T06:40:25.717Z,99904.44
2022-12-29T06:45:50.022Z,99911.50
2022-12-29T06:50:52.715Z,99913.00
2022-12-29T06:55:55.287Z,99921.63
2022-12-29T07:01:00.432Z,99918.81
2022-12-29T07:06:03.444Z,99903.88
2022-12-29T07:11:06.099Z,99911.06
2022-12-29T07:16:11.767Z,99916.28
2022-12-29T07:21:14.574Z,99919.72
2022-12-29T07:26:18.590Z,99922.88
2022-12-29T07:31:24.459Z,99929.59
2022-12-29T07:36:32.478Z,99931.78
2022-12-29T07:41:37.219Z,99930.56
2022-12-29T07:46:53.759Z,99942.22
2022-12-29T07:51:59.389Z,99947.72
2022-12-29T07:57:02.040Z,99959.53
2022-12-29T08:02:06.080Z,99969.69
2022-12-29T08:07:08.726Z,99972.50
2022-12-29T08:12:12.178Z,99989.00
2022-12-29T08:17:16.052Z,99992.03
2022-12-29T08:22:18.634Z,99991.91
2022-12-29T08:27:21.477Z,99992.19
2022-12-29T08:32:25.569Z,99999.00
2022-12-29T08:37:31.246Z,99986.03
2022-12-29T08:42:34.988Z,99997.22
2022-12-29T08:47:39.186Z,100002.84
2022-12-29T08:52:41.790Z,99999.81
2022-12-29T08:57:44.501Z,100002.84
2022-12-29T09:02:54.155Z,100017.13
2022-12-29T09:07:57.018Z,100012.53
2022-12-29T09:12:59.850Z,100017.56
2022-12-29T09:18:03.810Z,99997.66
2022-12-29T09:23:08.281Z,100016.72
2022-12-29T09:28:10.820Z,100023.63
2022-12-29T09:33:14.959Z,100023.28
2022-12-29T09:38:18.073Z,100009.97
2022-12-29T09:43:40.870Z,100022.97
2022-12-29T09:48:49.468Z,100009.66
2022-12-29T09:53:55.740Z,100030.88
2022-12-29T09:59:06.282Z,100012.56
2022-12-29T10:04:10.812Z,100036.81
2022-12-29T10:09:19.409Z,100025.00
2022-12-29T10:14:34.860Z,100045.47
2022-12-29T10:19:55.607Z,100042.94
2022-12-29T10:24:58.649Z,100035.78
2022-12-29T10:30:04.432Z,100061.16
2022-12-29T10:35:16.718Z,100066.03
2022-12-29T10:40:25.190Z,100057.94
2022-12-29T10:45:33.475Z,100075.13
2022-12-29T10:50:43.596Z,100059.81
2022-12-29T10:55:47.865Z,100078.75
2022-12-29T11:00:54.404Z,100091.03
2022-12-29T11:06:03.488Z,100090.91
2022-12-29T11:11:07.937Z,100093.53
2022-12-29T11:16:14.445Z,100097.53
2022-12-29T11:21:32.326Z,100103.16
2022-12-29T11:26:35.524Z,100098.44
2022-12-29T11:31:42.859Z,100121.41
2022-12-29T11:36:47.397Z,100122.38
2022-12-29T11:41:54.137Z,100123.56
2022-12-29T11:46:57.197Z,100129.53
2022-12-29T11:52:02.215Z,100142.78
2022-12-29T11:57:13.726Z,100149.53
2022-12-29T12:02:43.529Z,100121.44
2022-12-29T12:07:51.296Z,100117.22
2022-12-29T12:13:00.840Z,100156.34
2022-12-29T12:18:21.344Z,100176.72
2022-12-29T12:23:37.596Z,100168.97
2022-12-29T12:28:47.889Z,100179.59
2022-12-29T12:33:59.399Z,100185.81
2022-12-29T12:39:12.746Z,100176.75
2022-12-29T12:44:25.670Z,100186.56
2022-12-29T12:49:49.440Z,100187.34
2022-12-29T12:55:10.027Z,100201.72
2022-12-29T13:00:18.828Z,100197.84
2022-12-29T13:05:33.312Z,100186.22
2022-12-29T13:10:47.039Z,100202.66
2022-12-29T13:16:02.097Z,100219.63
2022-12-29T13:21:15.573Z,100215.69
2022-12-29T13:26:24.992Z,100229.56
2022-12-29T13:31:35.645Z,100221.72
2022-12-29T13:36:44.040Z,100214.59
2022-12-29T13:41:51.855Z,100229.28
2022-12-29T13:46:56.066Z,100229.41
2022-12-29T13:52:00.902Z,100229.16
2022-12-29T13:57:12.150Z,100242.66
2022-12-29T14:02:27.629Z,100222.81
2022-12-29T14:07:31.688Z,100247.91
2022-12-29T14:12:40.544Z,100249.53
2022-12-29T14:17:43.290Z,100243.13
2022-12-29T14:22:58.080Z,100253.50
2022-12-29T14:28:18.107Z,100251.59
2022-12-29T14:33:22.738Z,100251.03
2022-12-29T14:38:28.744Z,100255.38
2022-12-29T14:43:32.675Z,100258.81
2022-12-29T14:48:39.501Z,100257.84
2022-12-29T14:53:45.919Z,100260.84
2022-12-29T14:58:53.612Z,100272.63
2022-12-29T15:03:59.982Z,100274.22
2022-12-29T15:09:07.077Z,100286.13
2022-12-29T15:14:33.823Z,100275.03
2022-12-29T15:19:37.647Z,100278.19
2022-12-29T15:24:43.819Z,100289.03
2022-12-29T15:29:48.759Z,100303.94
2022-12-29T15:34:54.007Z,100314.97
2022-12-29T15:39:57.876Z,100307.84
2022-12-29T15:45:13.266Z,100301.00
2022-12-29T15:50:22.146Z,100310.84
2022-12-29T15:55:31.965Z,100325.38
2022-12-29T16:00:38.364Z,100328.03
2022-12-29T16:05:41.808Z,100339.88
2022-12-29T16:10:45.143Z,100348.91
2022-12-29T16:15:50.655Z,100333.00
2022-12-29T16:20:54.328Z,100347.59
2022-12-29T16:25:58.742Z,100348.94
2022-12-29T16:31:05.587Z,100358.84
2022-12-29T16:36:24.390Z,100372.53
2022-12-29T16:41:31.730Z,100391.16
2022-12-29T16:46:35.764Z,100394.50
2022-12-29T16:51:41.454Z,100395.13
2022-12-29T16:56:46.793Z,100397.66
2022-12-29T17:01:50.903Z,100416.22
2022-12-29T17:06:53.779Z,100397.88
2022-12-29T17:12:06.939Z,100415.59
2022-12-29T17:17:18.441Z,100414.53
2022-12-29T17:22:27.221Z,100408.28
2022-12-29T17:27:35.915Z,100400.09
2022-12-29T17:32:41.778Z,100427.44
2022-12-29T17:37:45.131Z,100444.81
2022-12-29T17:42:49.682Z,100440.47
2022-12-29T17:47:53.803Z,100440.16
2022-12-29T17:53:01.135Z,100433.50
2022-12-29T17:58:17.385Z,100445.34
2022-12-29T18:03:25.933Z,100447.41
2022-12-29T18:08:29.355Z,100459.31
2022-12-29T18:13:45.627Z,100459.50
2022-12-29T18:18:50.212Z,100455.53
2022-12-29T18:23:53.150Z,100463.53
2022-12-29T18:28:57.120Z,100475.00
2022-12-29T18:34:03.007Z,100440.47
2022-12-29T18:39:05.632Z,100472.28
2022-12-29T18:44:13.568Z,100465.97
2022-12-29T18:49:18.646Z,100375.47
2022-12-29T18:54:31.041Z,100477.19
2022-12-29T18:59:33.718Z,100475.41
2022-12-29T19:04:37.766Z,100394.47
2022-12-29T19:09:40.466Z,100499.16
2022-12-29T19:14:43.250Z,100492.66
2022-12-29T19:19:47.561Z,100480.72
2022-12-29T19:24:54.863Z,100507.91
2022-12-29T19:30:00.779Z,100518.09
2022-12-29T19:35:06.176Z,100511.59
2022-12-29T19:40:10.586Z,100511.19
2022-12-29T19:45:15.206Z,100524.09
2022-12-29T19:50:19.878Z,100519.88
2022-12-29T19:55:22.824Z,100534.75
2022-12-29T20:00:26.549Z,100524.38
2022-12-29T20:05:30.681Z,100554.94
2022-12-29T20:10:33.292Z,100553.09
2022-12-29T20:15:36.344Z,100548.03
2022-12-29T20:20:40.700Z,100413.06
2022-12-29T20:25:46.113Z,100563.09
2022-12-29T20:30:56.515Z,100530.25
2022-12-29T20:36:08.242Z,100580.63
2022-12-29T20:41:14.164Z,100576.94
2022-12-29T20:46:21.402Z,100544.06
2022-12-29T20:51:28.424Z,100481.00
2022-12-29T20:56:31.825Z,100607.28
2022-12-29T21:01:36.093Z,100601.53
2022-12-29T21:06:40.618Z,100603.88
2022-12-29T21:11:45.602Z,100616.06
2022-12-29T21:16:48.641Z,100618.78
2022-12-29T21:21:53.300Z,100612.22
2022-12-29T21:26:55.991Z,100603.56
2022-12-29T21:32:06.236Z,100611.88
2022-12-29T21:37:10.891Z,100595.44
2022-12-29T21:42:14.368Z,100617.06
2022-12-29T21:47:17.715Z,100623.28
2022-12-29T21:52:21.826Z,100611.72
2022-12-29T21:57:42.449Z,100589.66
2022-12-29T22:03:03.802Z,100621.97
2022-12-29T22:08:25.765Z,100632.91
2022-12-29T22:13:28.757Z,100644.19
2022-12-29T22:18:31.371Z,100627.03
2022-12-29T22:23:35.384Z,100652.56
2022-12-29T22:28:38.793Z,100655.56
2022-12-29T22:33:41.365Z,100653.63
2022-12-29T22:38:45.298Z,100671.38
2022-12-29T22:43:48.008Z,100674.00
2022-12-29T22:48:50.614Z,100681.09
2022-12-29T22:53:54.819Z,100691.78
2022-12-29T22:58:57.419Z,100692.34
2022-12-29T23:04:35.061Z,100700.34
2022-12-29T23:09:23.997Z,100681.03
2022-12-29T23:14:26.967Z,100700.06
2022-12-29T23:19:30.272Z,100724.72
2022-12-29T23:24:34.362Z,100744.53
2022-12-29T23:29:38.072Z,100744.84
2022-12-29T23:34:40.960Z,100751.22
2022-12-29T23:39:44.859Z,100757.94
2022-12-29T23:44:47.819Z,100769.63
2022-12-29T23:49:50.605Z,100775.41
2022-12-29T23:54:54.537Z,100778.28
2022-12-29T23:59:57.103Z,100778.09
